createdAt,value
2023-12-11T00:01:16.077Z,990.30
2023-12-11T00:06:20.176Z,990.20
2023-12-11T00:11:24.318Z,990.16
2023-12-11T00:16:28.532Z,990.36
2023-12-11T00:21:32.739Z,990.22
2023-12-11T00:26:36.830Z,990.24
2023-12-11T00:31:41.010Z,990.31
2023-12-11T00:36:45.198Z,990.46
2023-12-11T00:41:49.334Z,990.37
2023-12-11T00:46:53.485Z,990.42
2023-12-11T00:51:57.641Z,990.31
2023-12-11T00:57:01.799Z,990.35
2023-12-11T01:02:05.970Z,990.37
2023-12-11T01:07:10.204Z,990.18
2023-12-11T01:12:14.325Z,990.45
2023-12-11T01:17:37.485Z,990.35
2023-12-11T01:22:22.608Z,990.30
2023-12-11T01:27:26.770Z,990.43
2023-12-11T01:37:35.098Z,990.27
2023-12-11T01:42:39.258Z,990.26
2023-12-11T01:47:43.475Z,990.35
2023-12-11T01:52:47.580Z,990.24
2023-12-11T01:57:51.749Z,990.16
2023-12-11T02:02:55.939Z,990.22
2023-12-11T02:08:00.088Z,990.23
2023-12-11T02:13:04.291Z,990.14
2023-12-11T02:18:08.420Z,990.10
2023-12-11T02:23:12.552Z,990.01
2023-12-11T02:28:16.728Z,989.93
2023-12-11T02:33:20.930Z,989.85
2023-12-11T02:38:25.074Z,989.81
2023-12-11T02:43:29.164Z,989.85
2023-12-11T02:48:33.726Z,989.73
2023-12-11T02:53:37.509Z,989.60
2023-12-11T02:58:41.672Z,989.45
2023-12-11T03:03:45.934Z,989.42
2023-12-11T03:08:49.979Z,989.41
2023-12-11T03:13:54.184Z,989.26
2023-12-11T03:18:58.431Z,989.12
2023-12-11T03:24:02.511Z,989.08
2023-12-11T03:29:06.683Z,988.92
2023-12-11T03:34:09.014Z,988.97
2023-12-11T03:39:13.119Z,989.00
2023-12-11T03:44:17.260Z,988.97
2023-12-11T03:49:21.514Z,988.67
2023-12-11T03:54:25.588Z,988.92
2023-12-11T03:59:29.739Z,988.85
2023-12-11T04:04:34.000Z,988.69
2023-12-11T04:09:38.078Z,988.87
2023-12-11T04:14:42.185Z,988.78
2023-12-11T04:19:46.502Z,988.66
2023-12-11T04:24:50.654Z,988.52
2023-12-11T04:29:54.718Z,988.61
2023-12-11T04:34:58.888Z,988.65
2023-12-11T04:40:03.099Z,988.66
2023-12-11T04:45:07.174Z,988.55
2023-12-11T04:50:11.344Z,988.54
2023-12-11T04:55:15.598Z,988.60
2023-12-11T05:00:19.676Z,988.47
2023-12-11T05:05:23.916Z,988.38
2023-12-11T05:10:27.966Z,988.38
2023-12-11T05:15:32.314Z,988.42
2023-12-11T05:20:36.321Z,988.40
2023-12-11T05:25:40.491Z,988.29
2023-12-11T05:30:44.651Z,988.21
2023-12-11T05:35:48.818Z,988.43
2023-12-11T05:40:52.965Z,988.39
2023-12-11T05:45:57.170Z,988.26
2023-12-11T05:51:01.281Z,988.28
2023-12-11T05:56:05.428Z,988.20
2023-12-11T06:01:09.816Z,988.28
2023-12-11T06:06:13.841Z,988.21
2023-12-11T06:11:17.942Z,988.42
2023-12-11T06:16:22.102Z,988.44
2023-12-11T06:21:26.280Z,988.23
2023-12-11T06:26:30.438Z,988.30
2023-12-11T06:31:34.628Z,988.22
2023-12-11T06:36:38.811Z,988.17
2023-12-11T06:41:42.921Z,988.18
2023-12-11T06:46:47.114Z,988.29
2023-12-11T06:51:51.482Z,988.31
2023-12-11T06:56:55.396Z,988.13
2023-12-11T07:01:59.703Z,988.23
2023-12-11T07:07:03.799Z,988.12
2023-12-11T07:12:07.903Z,988.06
2023-12-11T07:17:12.072Z,988.23
2023-12-11T07:22:16.397Z,988.25
2023-12-11T07:27:20.377Z,988.20
2023-12-11T07:32:24.574Z,988.31
2023-12-11T07:37:28.859Z,988.22
2023-12-11T07:42:32.850Z,988.27
2023-12-11T07:47:37.366Z,988.22
2023-12-11T07:52:41.285Z,988.21
2023-12-11T07:57:45.339Z,988.26
2023-12-11T08:02:49.504Z,988.17
2023-12-11T08:07:53.665Z,988.29
2023-12-11T08:12:57.848Z,988.36
2023-12-11T08:18:02.047Z,988.41
2023-12-11T08:23:06.155Z,988.56
2023-12-11T08:28:10.341Z,988.69
2023-12-11T08:33:14.554Z,988.70
2023-12-11T08:38:18.613Z,988.58
2023-12-11T08:43:22.874Z,988.67
2023-12-11T08:48:28.688Z,988.84
2023-12-11T08:53:31.108Z,988.79
2023-12-11T08:58:35.297Z,988.81
2023-12-11T09:03:37.670Z,988.94
2023-12-11T09:08:41.707Z,988.79
2023-12-11T09:13:45.906Z,988.89
2023-12-11T09:18:50.203Z,988.96
2023-12-11T09:23:54.193Z,989.09
2023-12-11T09:28:58.443Z,989.00
2023-12-11T09:34:02.694Z,989.29
2023-12-11T09:39:06.671Z,989.26
2023-12-11T09:44:10.873Z,989.45
2023-12-11T09:49:15.147Z,989.43
2023-12-11T09:54:19.158Z,989.43
2023-12-11T09:59:23.341Z,989.71
2023-12-11T10:04:27.522Z,989.76
2023-12-11T10:09:31.686Z,989.70
2023-12-11T10:14:35.837Z,989.88
2023-12-11T10:19:40.080Z,989.94
2023-12-11T10:24:44.158Z,990.06
2023-12-11T10:29:48.273Z,990.09
2023-12-11T10:34:52.754Z,990.11
2023-12-11T10:39:56.867Z,990.16
2023-12-11T10:45:00.859Z,990.25
2023-12-11T10:50:05.016Z,990.26
2023-12-11T10:55:09.130Z,990.31
2023-12-11T11:00:13.287Z,990.45
2023-12-11T11:05:17.463Z,990.43
2023-12-11T11:10:21.964Z,990.59
2023-12-11T11:15:25.810Z,990.57
2023-12-11T11:20:29.924Z,990.74
2023-12-11T11:25:34.378Z,990.66
2023-12-11T11:30:38.425Z,990.88
2023-12-11T11:35:42.419Z,991.00
2023-12-11T11:40:46.743Z,991.16
2023-12-11T11:45:50.795Z,991.15
2023-12-11T11:50:54.901Z,991.27
2023-12-11T11:55:59.161Z,991.36
2023-12-11T12:01:03.292Z,991.49
2023-12-11T12:06:07.503Z,991.56
2023-12-11T12:11:11.545Z,991.54
2023-12-11T12:16:15.749Z,991.68
2023-12-11T12:21:19.870Z,991.69
2023-12-11T12:26:24.038Z,991.81
2023-12-11T12:31:28.251Z,991.91
2023-12-11T12:36:32.336Z,991.86
2023-12-11T12:41:36.506Z,991.99
2023-12-11T12:46:40.675Z,991.98
2023-12-11T12:51:44.898Z,992.09
2023-12-11T12:56:48.994Z,992.19
2023-12-11T13:01:53.260Z,992.26
2023-12-11T13:06:57.382Z,992.26
2023-12-11T13:12:01.467Z,992.41
2023-12-11T13:17:05.704Z,992.51
2023-12-11T13:22:09.919Z,992.45
2023-12-11T13:27:13.974Z,992.51
2023-12-11T13:32:18.146Z,992.49
2023-12-11T13:37:22.330Z,992.63
2023-12-11T13:42:26.470Z,992.64
2023-12-11T13:47:30.944Z,992.66
2023-12-11T13:52:34.811Z,992.77
2023-12-11T13:57:38.948Z,992.84
2023-12-11T14:03:00.221Z,992.95
2023-12-11T14:07:47.256Z,993.05
2023-12-11T14:12:51.468Z,993.09
2023-12-11T14:17:55.682Z,993.34
2023-12-11T14:22:59.759Z,993.33
2023-12-11T14:28:04.000Z,993.35
2023-12-11T14:33:06.380Z,993.51
2023-12-11T14:38:10.339Z,993.51
2023-12-11T14:43:14.623Z,993.66
2023-12-11T14:48:18.782Z,993.72
2023-12-11T14:53:22.863Z,993.85
2023-12-11T14:58:27.076Z,993.95
2023-12-11T15:03:29.343Z,994.12
2023-12-11T15:08:33.418Z,994.24
2023-12-11T15:13:37.628Z,994.25
2023-12-11T15:18:41.781Z,994.41
2023-12-11T15:23:45.946Z,994.44
2023-12-11T15:28:50.125Z,994.55
2023-12-11T15:33:54.471Z,994.52
2023-12-11T15:38:58.396Z,994.60
2023-12-11T15:44:02.614Z,994.62
2023-12-11T15:49:06.853Z,994.77
2023-12-11T15:54:10.923Z,994.79
2023-12-11T15:59:15.077Z,994.75
2023-12-11T16:04:19.246Z,994.77
2023-12-11T16:09:23.359Z,994.74
2023-12-11T16:14:27.540Z,994.76
2023-12-11T16:19:31.846Z,994.76
2023-12-11T16:24:35.851Z,994.82
2023-12-11T16:29:40.038Z,994.83
2023-12-11T16:34:44.339Z,994.97
2023-12-11T16:39:48.413Z,995.11
2023-12-11T16:44:52.519Z,995.21
2023-12-11T16:50:06.060Z,995.23
2023-12-11T16:55:01.039Z,995.26
2023-12-11T17:00:05.027Z,995.27
2023-12-11T17:05:09.360Z,995.37
2023-12-11T17:10:13.478Z,995.32
2023-12-11T17:15:17.493Z,995.45
2023-12-11T17:20:21.782Z,995.49
2023-12-11T17:25:25.878Z,995.62
2023-12-11T17:30:30.024Z,995.60
2023-12-11T17:35:34.180Z,995.66
2023-12-11T17:40:38.355Z,995.69
2023-12-11T17:45:42.664Z,995.75
2023-12-11T17:50:46.676Z,995.72
2023-12-11T18:00:55.022Z,995.74
2023-12-11T18:05:59.166Z,995.89
2023-12-11T18:11:03.327Z,995.89
2023-12-11T18:16:07.498Z,995.86
2023-12-11T18:21:11.676Z,995.90
2023-12-11T18:26:15.797Z,996.05
2023-12-11T18:31:20.039Z,996.01
2023-12-11T18:36:24.109Z,996.22
2023-12-11T18:41:28.301Z,996.28
2023-12-11T18:46:32.554Z,996.35
2023-12-11T18:51:36.588Z,996.34
2023-12-11T18:56:40.787Z,996.44
2023-12-11T19:01:45.042Z,996.47
2023-12-11T19:06:49.085Z,996.47
2023-12-11T19:11:53.255Z,996.61
2023-12-11T19:16:57.410Z,996.71
2023-12-11T19:22:01.584Z,996.75
2023-12-11T19:27:05.742Z,996.83
2023-12-11T19:32:10.037Z,996.87
2023-12-11T19:37:14.106Z,996.86
2023-12-11T19:42:18.546Z,996.84
2023-12-11T19:47:22.462Z,996.81
2023-12-11T19:52:26.596Z,996.77
2023-12-11T19:57:31.058Z,996.99
2023-12-11T20:02:34.853Z,997.17
2023-12-11T20:07:39.032Z,997.05
2023-12-11T20:12:43.217Z,997.13
2023-12-11T20:17:47.408Z,997.13
2023-12-11T20:22:51.558Z,997.14
2023-12-11T20:27:55.690Z,997.20
2023-12-11T20:32:58.051Z,997.14
2023-12-11T20:38:02.125Z,997.04
2023-12-11T20:43:06.288Z,997.17
2023-12-11T20:48:10.525Z,997.16
2023-12-11T20:53:14.609Z,997.26
2023-12-11T20:58:18.838Z,997.36
2023-12-11T21:03:22.915Z,997.38
2023-12-11T21:08:27.073Z,997.35
2023-12-11T21:13:31.370Z,997.37
2023-12-11T21:18:35.575Z,997.41
2023-12-11T21:23:39.597Z,997.40
2023-12-11T21:28:43.762Z,997.48
2023-12-11T21:33:47.985Z,997.50
2023-12-11T21:38:52.144Z,997.56
2023-12-11T21:43:56.228Z,997.64
2023-12-11T21:49:02.505Z,997.62
2023-12-11T21:54:04.567Z,997.65
2023-12-11T21:59:08.700Z,997.72
2023-12-11T22:04:12.961Z,997.87
2023-12-11T22:09:17.043Z,997.84
2023-12-11T22:14:21.200Z,997.89
2023-12-11T22:19:25.488Z,997.97
2023-12-11T22:24:29.623Z,997.98
2023-12-11T22:29:33.657Z,998.04
2023-12-11T22:34:38.007Z,998.17
2023-12-11T22:39:42.024Z,998.28
2023-12-11T22:44:46.155Z,998.33
2023-12-11T22:49:50.379Z,998.32
2023-12-11T22:54:54.576Z,998.49
2023-12-11T22:59:58.626Z,998.44
2023-12-11T23:05:03.000Z,998.35
2023-12-11T23:10:07.051Z,998.40
2023-12-11T23:15:11.145Z,998.31
2023-12-11T23:20:15.286Z,998.30
2023-12-11T23:25:21.898Z,998.32
2023-12-11T23:30:23.672Z,998.31
2023-12-11T23:35:27.865Z,998.31
2023-12-11T23:40:32.032Z,998.35
2023-12-11T23:45:36.154Z,998.19
2023-12-11T23:50:40.356Z,998.15
2023-12-11T23:55:45.574Z,998.25
